createdAt,value
2019-03-03T00:02:14.638Z,2.03
2019-03-03T00:04:44.307Z,2.70
2019-03-03T00:07:14.071Z,1.70
2019-03-03T00:09:43.732Z,2.03
2019-03-03T00:12:13.366Z,1.60
2019-03-03T00:14:43.004Z,1.90
2019-03-03T00:17:12.692Z,1.60
2019-03-03T00:19:42.363Z,1.73
2019-03-03T00:22:12.041Z,1.77
2019-03-03T00:24:41.707Z,1.67
2019-03-03T00:27:11.458Z,2.37
2019-03-03T00:29:41.083Z,1.97
2019-03-03T00:32:10.755Z,1.97
2019-03-03T00:34:40.444Z,2.23
2019-03-03T00:37:16.552Z,1.80
2019-03-03T00:39:50.876Z,1.67
2019-03-03T00:42:42.536Z,1.43
2019-03-03T00:45:31.867Z,3.03
2019-03-03T00:48:38.957Z,2.77
2019-03-03T00:51:19.117Z,2.00
2019-03-03T00:54:07.776Z,2.10
2019-03-03T00:56:51.157Z,2.20
2019-03-03T00:59:36.297Z,1.60
2019-03-03T01:02:18.183Z,1.90
2019-03-03T01:05:03.275Z,1.93
2019-03-03T01:07:44.743Z,2.07
2019-03-03T01:10:20.539Z,1.77
2019-03-03T01:13:05.326Z,2.50
2019-03-03T01:16:12.165Z,2.37
2019-03-03T01:18:47.177Z,2.63
2019-03-03T01:21:24.335Z,1.90
2019-03-03T01:24:11.628Z,1.97
2019-03-03T01:26:41.509Z,2.10
2019-03-03T01:29:11.175Z,2.00
2019-03-03T01:31:40.812Z,2.13
2019-03-03T01:34:10.493Z,2.10
2019-03-03T01:36:40.141Z,4.53
2019-03-03T01:39:10.295Z,4.53
2019-03-03T01:41:40.040Z,3.20
2019-03-03T01:44:09.670Z,2.10
2019-03-03T01:46:39.312Z,2.57
2019-03-03T01:49:08.984Z,2.97
2019-03-03T01:51:38.678Z,2.60
2019-03-03T01:54:08.451Z,2.47
2019-03-03T01:56:38.116Z,3.43
2019-03-03T01:59:07.749Z,2.90
2019-03-03T02:01:37.399Z,3.07
2019-03-03T02:04:07.040Z,2.57
2019-03-03T02:06:36.696Z,2.53
2019-03-03T02:09:10.334Z,2.47
2019-03-03T02:11:40.066Z,1.97
2019-03-03T02:14:09.704Z,2.50
2019-03-03T02:16:39.383Z,2.87
2019-03-03T02:19:09.037Z,2.10
2019-03-03T02:21:38.697Z,2.17
2019-03-03T02:24:08.343Z,1.90
2019-03-03T02:26:38.153Z,2.30
2019-03-03T02:29:07.871Z,2.50
2019-03-03T02:31:37.536Z,1.80
2019-03-03T02:34:07.197Z,3.30
2019-03-03T02:36:36.855Z,2.03
2019-03-03T02:39:13.806Z,1.83
2019-03-03T02:41:43.486Z,3.07
2019-03-03T02:44:13.152Z,2.50
2019-03-03T02:46:42.889Z,2.33
2019-03-03T02:49:12.550Z,2.33
2019-03-03T02:51:42.180Z,2.27
2019-03-03T02:54:11.900Z,2.03
2019-03-03T02:56:41.671Z,2.37
2019-03-03T02:59:30.392Z,2.23
2019-03-03T03:02:03.271Z,2.33
2019-03-03T03:04:32.922Z,2.33
2019-03-03T03:07:11.118Z,2.63
2019-03-03T03:10:05.728Z,2.10
2019-03-03T03:13:03.363Z,2.03
2019-03-03T03:15:45.600Z,2.23
2019-03-03T03:18:37.353Z,1.80
2019-03-03T03:21:40.832Z,2.37
2019-03-03T03:24:41.363Z,2.07
2019-03-03T03:27:39.100Z,2.97
2019-03-03T03:30:42.945Z,1.90
2019-03-03T03:33:27.262Z,2.47
2019-03-03T03:36:07.752Z,2.20
2019-03-03T03:39:02.403Z,2.27
2019-03-03T03:41:43.832Z,2.47
2019-03-03T03:44:32.723Z,2.30
2019-03-03T03:47:22.909Z,3.17
2019-03-03T03:50:23.412Z,3.00
2019-03-03T03:53:00.549Z,4.03
2019-03-03T03:55:47.480Z,2.30
2019-03-03T03:58:22.979Z,2.93
2019-03-03T04:01:14.621Z,2.57
2019-03-03T04:04:12.525Z,2.20
2019-03-03T04:06:59.817Z,2.83
2019-03-03T04:09:50.935Z,2.40
2019-03-03T04:12:38.044Z,2.50
2019-03-03T04:15:35.970Z,2.40
2019-03-03T04:18:30.475Z,2.30
2019-03-03T04:21:12.996Z,2.07
2019-03-03T04:24:04.673Z,2.20
2019-03-03T04:26:42.715Z,3.40
2019-03-03T04:29:19.304Z,3.33
2019-03-03T04:32:10.860Z,2.23
2019-03-03T04:35:02.364Z,2.17
2019-03-03T04:37:53.733Z,2.10
2019-03-03T04:40:32.588Z,2.07
2019-03-03T04:43:27.196Z,2.60
2019-03-03T04:46:33.893Z,2.00
2019-03-03T04:49:40.487Z,2.80
2019-03-03T04:52:27.688Z,2.53
2019-03-03T04:55:19.176Z,2.20
2019-03-03T04:57:58.818Z,2.20
2019-03-03T05:00:50.424Z,1.63
2019-03-03T05:03:41.733Z,2.00
2019-03-03T05:06:39.295Z,2.30
2019-03-03T05:09:27.815Z,1.80
2019-03-03T05:12:39.355Z,2.13
2019-03-03T05:15:32.157Z,2.23
2019-03-03T05:18:08.456Z,2.30
2019-03-03T05:20:49.455Z,2.10
2019-03-03T05:23:19.159Z,2.33
2019-03-03T05:25:48.840Z,3.20
2019-03-03T05:28:18.499Z,2.23
2019-03-03T05:30:48.159Z,1.97
2019-03-03T05:33:17.802Z,1.93
2019-03-03T05:35:47.882Z,2.00
2019-03-03T05:38:17.571Z,1.83
2019-03-03T05:40:47.228Z,2.20
2019-03-03T05:43:16.876Z,2.00
2019-03-03T05:45:46.548Z,2.03
2019-03-03T05:48:16.307Z,2.03
2019-03-03T05:50:46.498Z,1.70
2019-03-03T05:53:16.148Z,1.80
2019-03-03T05:55:45.800Z,2.53
2019-03-03T05:58:15.546Z,2.10
2019-03-03T06:00:45.187Z,1.93
2019-03-03T06:03:14.896Z,1.97
2019-03-03T06:05:44.638Z,1.70
2019-03-03T06:08:14.386Z,2.63
2019-03-03T06:10:44.061Z,1.93
2019-03-03T06:13:13.746Z,3.23
2019-03-03T06:15:43.414Z,1.70
2019-03-03T06:18:13.137Z,2.00
2019-03-03T06:20:42.795Z,2.10
2019-03-03T06:23:12.511Z,1.90
2019-03-03T06:25:42.153Z,1.70
2019-03-03T06:28:11.847Z,1.70
2019-03-03T06:30:41.509Z,1.83
2019-03-03T06:33:11.189Z,1.73
2019-03-03T06:35:40.868Z,9.97
2019-03-03T06:38:10.644Z,9.57
2019-03-03T06:40:40.375Z,14.47
2019-03-03T06:43:10.029Z,12.43
2019-03-03T06:45:39.695Z,13.83
2019-03-03T06:48:09.619Z,12.73
2019-03-03T06:50:39.323Z,10.63
2019-03-03T06:53:09.133Z,6.67
2019-03-03T06:55:38.851Z,9.03
2019-03-03T06:58:08.763Z,4.70
2019-03-03T07:00:38.781Z,4.13
2019-03-03T07:03:08.690Z,8.23
2019-03-03T07:05:38.481Z,12.07
2019-03-03T07:08:08.355Z,11.10
2019-03-03T07:10:38.104Z,4.03
2019-03-03T07:13:07.821Z,7.57
2019-03-03T07:15:37.778Z,7.07
2019-03-03T07:18:07.787Z,3.33
2019-03-03T07:20:37.477Z,4.93
2019-03-03T07:23:07.155Z,6.30
2019-03-03T07:25:39.340Z,6.70
2019-03-03T07:28:09.143Z,4.30
2019-03-03T07:30:57.919Z,7.00
2019-03-03T07:33:33.376Z,4.60
2019-03-03T07:36:03.054Z,7.23
2019-03-03T07:38:32.869Z,8.50
2019-03-03T07:41:02.544Z,11.77
2019-03-03T07:43:32.340Z,15.83
2019-03-03T07:46:02.150Z,12.67
2019-03-03T07:48:31.899Z,8.77
2019-03-03T07:51:01.691Z,15.33
2019-03-03T07:53:31.488Z,17.63
2019-03-03T07:56:01.389Z,11.47
2019-03-03T07:58:31.199Z,12.77
2019-03-03T08:01:00.941Z,11.50
2019-03-03T08:03:30.727Z,13.03
2019-03-03T08:06:00.592Z,14.33
2019-03-03T08:08:30.484Z,11.13
2019-03-03T08:11:00.259Z,10.67
2019-03-03T08:13:29.938Z,9.93
2019-03-03T08:15:59.686Z,20.63
2019-03-03T08:18:29.496Z,10.77
2019-03-03T08:20:59.417Z,10.07
2019-03-03T08:23:29.247Z,18.97
2019-03-03T08:25:58.949Z,9.37
2019-03-03T08:28:28.759Z,9.17
2019-03-03T08:30:58.452Z,9.27
2019-03-03T08:33:28.495Z,9.73
2019-03-03T08:35:59.665Z,9.37
2019-03-03T08:38:29.445Z,6.10
2019-03-03T08:40:59.245Z,9.80
2019-03-03T08:43:36.511Z,12.53
2019-03-03T08:46:22.480Z,14.63
2019-03-03T08:49:13.891Z,14.63
2019-03-03T08:52:02.541Z,10.30
2019-03-03T08:54:59.321Z,10.97
2019-03-03T08:57:35.659Z,9.10
2019-03-03T09:00:18.233Z,6.50
2019-03-03T09:03:06.824Z,5.53
2019-03-03T09:06:04.487Z,4.07
2019-03-03T09:08:51.631Z,8.73
2019-03-03T09:11:39.040Z,6.60
2019-03-03T09:14:25.052Z,6.27
2019-03-03T09:17:13.018Z,10.93
2019-03-03T09:20:07.414Z,7.50
2019-03-03T09:22:55.995Z,14.03
2019-03-03T09:25:53.148Z,11.07
2019-03-03T09:28:40.347Z,9.13
2019-03-03T09:31:29.002Z,6.87
2019-03-03T09:34:16.535Z,5.17
2019-03-03T09:37:14.249Z,4.73
2019-03-03T09:40:21.289Z,5.43
2019-03-03T09:43:09.860Z,5.50
2019-03-03T09:46:07.431Z,3.93
2019-03-03T09:48:53.999Z,4.53
2019-03-03T09:51:33.624Z,7.80
2019-03-03T09:54:21.059Z,13.43
2019-03-03T09:57:08.417Z,8.47
2019-03-03T09:59:51.916Z,5.50
2019-03-03T10:02:58.931Z,6.87
2019-03-03T10:05:39.785Z,17.13
2019-03-03T10:08:40.506Z,17.03
2019-03-03T10:11:17.364Z,15.97
2019-03-03T10:13:57.872Z,16.00
2019-03-03T10:16:45.700Z,13.93
2019-03-03T10:19:40.502Z,17.07
2019-03-03T10:22:20.485Z,13.27
2019-03-03T10:24:59.231Z,13.63
2019-03-03T10:27:50.589Z,36.00
2019-03-03T10:30:34.393Z,88.53
2019-03-03T10:33:22.023Z,55.03
2019-03-03T10:36:09.230Z,64.00
2019-03-03T10:38:57.846Z,42.00
2019-03-03T10:41:43.779Z,37.63
2019-03-03T10:44:38.535Z,40.57
2019-03-03T10:47:25.831Z,45.03
2019-03-03T10:50:05.649Z,36.23
2019-03-03T10:52:42.427Z,50.90
2019-03-03T10:55:28.606Z,64.87
2019-03-03T10:58:26.498Z,80.63
2019-03-03T11:01:04.768Z,48.77
2019-03-03T11:03:56.258Z,58.80
2019-03-03T11:06:38.742Z,46.47
2019-03-03T11:09:23.707Z,47.97
2019-03-03T11:12:12.268Z,35.40
2019-03-03T11:15:00.825Z,28.50
2019-03-03T11:17:38.595Z,27.93
2019-03-03T11:20:21.096Z,25.63
2019-03-03T11:23:02.637Z,32.03
2019-03-03T11:25:49.570Z,57.47
2019-03-03T11:28:41.214Z,48.80
2019-03-03T11:31:28.777Z,51.20
2019-03-03T11:34:16.087Z,49.73
2019-03-03T11:36:56.038Z,32.73
2019-03-03T11:39:43.292Z,50.80
2019-03-03T11:42:42.018Z,46.93
2019-03-03T11:45:23.636Z,40.43
2019-03-03T11:48:11.294Z,35.77
2019-03-03T11:50:54.284Z,37.10
2019-03-03T11:53:42.807Z,29.77
2019-03-03T11:56:21.040Z,35.57
2019-03-03T11:59:15.752Z,28.07
2019-03-03T12:01:57.951Z,23.37
2019-03-03T12:05:01.902Z,23.83
2019-03-03T12:07:53.524Z,27.30
2019-03-03T12:11:07.320Z,29.83
2019-03-03T12:13:59.029Z,24.47
2019-03-03T12:16:53.544Z,21.47
2019-03-03T12:19:45.160Z,23.83
2019-03-03T12:22:33.387Z,17.80
2019-03-03T12:25:22.014Z,21.47
2019-03-03T12:28:29.077Z,32.23
2019-03-03T12:31:23.616Z,19.50
2019-03-03T12:34:15.021Z,17.57
2019-03-03T12:37:06.497Z,17.97
2019-03-03T12:39:55.129Z,18.60
2019-03-03T12:42:46.531Z,13.30
2019-03-03T12:45:31.536Z,10.23
2019-03-03T12:48:16.310Z,12.93
2019-03-03T12:50:56.244Z,13.57
2019-03-03T12:53:37.565Z,19.13
2019-03-03T12:56:35.159Z,13.67
2019-03-03T12:59:27.329Z,11.33
2019-03-03T13:02:08.454Z,10.97
2019-03-03T13:04:57.045Z,6.93
2019-03-03T13:07:45.743Z,12.40
2019-03-03T13:10:37.134Z,7.97
2019-03-03T13:13:19.646Z,11.60
2019-03-03T13:16:14.653Z,13.43
2019-03-03T13:19:00.012Z,9.60
2019-03-03T13:21:54.679Z,11.00
2019-03-03T13:24:49.259Z,6.80
2019-03-03T13:27:46.868Z,4.63
2019-03-03T13:30:53.787Z,9.50
2019-03-03T13:33:54.388Z,6.67
2019-03-03T13:36:37.903Z,11.87
2019-03-03T13:39:28.166Z,10.30
2019-03-03T13:42:07.621Z,12.43
2019-03-03T13:44:37.399Z,5.33
2019-03-03T13:47:07.208Z,5.73
2019-03-03T13:49:37.049Z,7.87
2019-03-03T13:52:06.783Z,5.07
2019-03-03T13:54:36.539Z,8.07
2019-03-03T13:57:06.321Z,6.53
2019-03-03T13:59:35.991Z,9.27
2019-03-03T14:02:05.853Z,10.50
2019-03-03T14:04:35.609Z,9.20
2019-03-03T14:07:05.404Z,11.73
2019-03-03T14:09:35.211Z,6.17
2019-03-03T14:12:05.000Z,9.33
2019-03-03T14:14:34.742Z,8.10
2019-03-03T14:17:04.484Z,8.03
2019-03-03T14:19:34.172Z,6.40
2019-03-03T14:22:03.934Z,6.50
2019-03-03T14:24:33.749Z,4.03
2019-03-03T14:27:10.314Z,7.87
2019-03-03T14:29:35.193Z,4.77
2019-03-03T14:32:05.081Z,5.73
2019-03-03T14:34:34.820Z,5.03
2019-03-03T14:37:04.749Z,8.23
2019-03-03T14:39:37.093Z,6.80
2019-03-03T14:42:07.020Z,6.80
2019-03-03T14:44:36.804Z,5.57
2019-03-03T14:47:06.896Z,11.77
2019-03-03T14:49:36.543Z,6.27
2019-03-03T14:52:06.421Z,5.50
2019-03-03T14:54:36.235Z,7.77
2019-03-03T14:57:06.020Z,4.77
2019-03-03T14:59:35.979Z,6.53
2019-03-03T15:02:05.729Z,4.90
2019-03-03T15:04:35.512Z,4.30
2019-03-03T15:07:05.318Z,7.70
2019-03-03T15:09:35.132Z,3.07
2019-03-03T15:12:05.771Z,6.03
2019-03-03T15:14:35.777Z,4.43
2019-03-03T15:17:05.682Z,8.50
2019-03-03T15:19:35.359Z,10.93
2019-03-03T15:22:05.059Z,15.83
2019-03-03T15:24:34.736Z,20.13
2019-03-03T15:27:07.695Z,32.93
2019-03-03T15:29:56.488Z,22.03
2019-03-03T15:32:26.587Z,21.37
2019-03-03T15:34:56.273Z,17.27
2019-03-03T15:37:26.448Z,18.43
2019-03-03T15:39:56.107Z,22.70
2019-03-03T15:42:25.889Z,15.93
2019-03-03T15:44:55.715Z,18.27
2019-03-03T15:47:44.537Z,14.70
2019-03-03T15:50:14.300Z,18.03
2019-03-03T15:52:43.978Z,22.13
2019-03-03T15:55:14.100Z,16.57
2019-03-03T15:57:44.003Z,17.47
2019-03-03T16:00:19.175Z,15.37
2019-03-03T16:02:49.094Z,23.93
2019-03-03T16:05:18.953Z,12.90
2019-03-03T16:07:48.782Z,22.47
2019-03-03T16:10:18.714Z,18.10
2019-03-03T16:12:48.451Z,16.70
2019-03-03T16:15:18.328Z,17.13
2019-03-03T16:17:48.278Z,17.80
2019-03-03T16:20:18.849Z,15.40
2019-03-03T16:22:49.008Z,15.33
2019-03-03T16:25:20.725Z,6.93
2019-03-03T16:27:50.746Z,7.73
2019-03-03T16:30:20.674Z,5.13
2019-03-03T16:32:50.429Z,7.23
2019-03-03T16:35:20.291Z,9.80
2019-03-03T16:37:50.304Z,11.40
2019-03-03T16:40:21.574Z,8.13
2019-03-03T16:42:51.433Z,10.07
2019-03-03T16:45:21.232Z,10.67
2019-03-03T16:47:51.112Z,9.87
2019-03-03T16:50:21.095Z,8.53
2019-03-03T16:52:50.875Z,9.37
2019-03-03T16:55:20.600Z,10.70
2019-03-03T16:57:50.486Z,7.37
2019-03-03T17:00:21.190Z,8.47
2019-03-03T17:02:52.182Z,5.33
2019-03-03T17:05:22.413Z,5.43
2019-03-03T17:07:52.174Z,9.57
2019-03-03T17:10:21.980Z,7.80
2019-03-03T17:13:22.834Z,11.83
2019-03-03T17:15:52.661Z,7.97
2019-03-03T17:18:22.485Z,6.93
2019-03-03T17:20:52.160Z,6.67
2019-03-03T17:23:21.948Z,6.20
2019-03-03T17:25:53.620Z,8.13
2019-03-03T17:28:25.980Z,7.17
2019-03-03T17:30:57.303Z,5.80
2019-03-03T17:33:29.144Z,10.93
2019-03-03T17:35:59.768Z,6.07
2019-03-03T17:38:31.936Z,7.50
2019-03-03T17:41:02.450Z,5.07
2019-03-03T17:43:32.850Z,7.23
2019-03-03T17:46:02.662Z,6.23
2019-03-03T17:48:32.580Z,6.70
2019-03-03T17:51:02.428Z,6.17
2019-03-03T17:53:32.143Z,6.57
2019-03-03T17:56:01.885Z,4.20
2019-03-03T17:58:31.964Z,4.00
2019-03-03T18:01:01.663Z,3.90
2019-03-03T18:03:31.757Z,4.30
2019-03-03T18:06:01.582Z,5.20
2019-03-03T18:08:31.378Z,4.37
2019-03-03T18:11:01.716Z,3.47
2019-03-03T18:13:31.436Z,1.80
2019-03-03T18:16:01.088Z,1.53
2019-03-03T18:18:30.890Z,3.77
2019-03-03T18:21:00.635Z,13.83
2019-03-03T18:23:30.569Z,10.40
2019-03-03T18:26:00.392Z,11.77
2019-03-03T18:28:30.163Z,17.67
2019-03-03T18:30:59.900Z,15.60
2019-03-03T18:33:29.643Z,8.90
2019-03-03T18:35:59.356Z,5.83
2019-03-03T18:38:29.236Z,5.63
2019-03-03T18:40:58.971Z,7.37
2019-03-03T18:43:28.689Z,8.33
2019-03-03T18:45:58.437Z,5.70
2019-03-03T18:48:28.403Z,8.87
2019-03-03T18:50:59.309Z,7.87
2019-03-03T18:53:29.087Z,8.03
2019-03-03T18:55:58.811Z,11.47
2019-03-03T18:58:28.719Z,6.60
2019-03-03T19:00:58.582Z,4.53
2019-03-03T19:03:28.295Z,8.03
2019-03-03T19:05:58.091Z,7.20
2019-03-03T19:08:30.300Z,10.57
2019-03-03T19:10:59.622Z,9.40
2019-03-03T19:13:29.304Z,6.07
2019-03-03T19:15:59.047Z,5.03
2019-03-03T19:18:28.797Z,5.50
2019-03-03T19:20:58.464Z,5.10
2019-03-03T19:23:28.197Z,4.20
2019-03-03T19:25:58.060Z,6.70
2019-03-03T19:28:27.792Z,5.80
2019-03-03T19:30:57.549Z,8.23
2019-03-03T19:33:32.374Z,4.20
2019-03-03T19:36:02.865Z,4.27
2019-03-03T19:38:32.739Z,7.50
2019-03-03T19:41:02.651Z,11.80
2019-03-03T19:43:32.367Z,3.87
2019-03-03T19:46:02.223Z,8.23
2019-03-03T19:48:32.324Z,6.17
2019-03-03T19:51:03.340Z,3.63
2019-03-03T19:53:33.239Z,4.43
2019-03-03T19:56:02.996Z,8.70
2019-03-03T19:58:32.708Z,3.77
2019-03-03T20:01:02.519Z,11.17
2019-03-03T20:03:32.335Z,8.10
2019-03-03T20:06:02.093Z,7.27
2019-03-03T20:08:32.010Z,5.23
2019-03-03T20:11:01.725Z,3.43
2019-03-03T20:13:31.454Z,3.53
2019-03-03T20:16:02.082Z,5.33
2019-03-03T20:18:31.980Z,4.57
2019-03-03T20:21:01.788Z,5.73
2019-03-03T20:23:31.513Z,5.17
2019-03-03T20:26:01.309Z,3.77
2019-03-03T20:28:31.084Z,4.57
2019-03-03T20:31:00.956Z,3.93
2019-03-03T20:33:30.700Z,1.57
2019-03-03T20:36:00.518Z,1.93
2019-03-03T20:38:30.361Z,4.93
2019-03-03T20:41:00.031Z,4.03
2019-03-03T20:43:29.743Z,4.17
2019-03-03T20:45:59.771Z,3.67
2019-03-03T20:48:29.574Z,4.03
2019-03-03T20:50:59.452Z,7.10
2019-03-03T20:53:30.389Z,3.67
2019-03-03T20:56:00.131Z,5.00
2019-03-03T20:58:29.887Z,2.87
2019-03-03T21:00:59.654Z,3.47
2019-03-03T21:03:29.293Z,2.93
2019-03-03T21:05:58.988Z,6.03
2019-03-03T21:08:28.748Z,4.93
2019-03-03T21:10:58.527Z,4.70
2019-03-03T21:13:28.173Z,5.33
2019-03-03T21:15:58.083Z,4.23
2019-03-03T21:18:27.928Z,4.10
2019-03-03T21:20:57.570Z,3.07
2019-03-03T21:23:27.284Z,4.90
2019-03-03T21:26:15.980Z,2.13
2019-03-03T21:28:45.783Z,4.10
2019-03-03T21:31:16.276Z,3.40
2019-03-03T21:33:45.953Z,7.00
2019-03-03T21:36:15.751Z,3.73
2019-03-03T21:38:45.405Z,5.33
2019-03-03T21:41:15.037Z,3.07
2019-03-03T21:43:44.690Z,2.90
2019-03-03T21:46:14.333Z,3.03
2019-03-03T21:48:45.083Z,3.87
2019-03-03T21:51:14.777Z,2.00
2019-03-03T21:53:44.735Z,2.77
2019-03-03T21:56:14.400Z,2.40
2019-03-03T21:58:44.146Z,4.80
2019-03-03T22:01:13.815Z,3.40
2019-03-03T22:03:43.453Z,3.37
2019-03-03T22:06:13.110Z,5.93
2019-03-03T22:08:42.779Z,1.83
2019-03-03T22:11:12.554Z,1.73
2019-03-03T22:13:42.233Z,3.20
2019-03-03T22:16:11.872Z,2.70
2019-03-03T22:18:41.623Z,2.70
2019-03-03T22:21:11.292Z,2.27
2019-03-03T22:23:40.935Z,4.43
2019-03-03T22:26:10.886Z,2.50
2019-03-03T22:28:40.597Z,3.57
2019-03-03T22:31:10.286Z,2.07
2019-03-03T22:33:39.947Z,2.60
2019-03-03T22:36:09.672Z,2.30
2019-03-03T22:38:39.411Z,2.37
2019-03-03T22:41:09.081Z,1.87
2019-03-03T22:43:38.756Z,3.17
2019-03-03T22:46:08.445Z,2.87
2019-03-03T22:48:38.173Z,2.33
2019-03-03T22:51:07.811Z,4.33
2019-03-03T22:53:37.443Z,2.97
2019-03-03T22:56:07.100Z,1.80
2019-03-03T22:58:36.861Z,2.47
2019-03-03T23:01:27.703Z,3.30
2019-03-03T23:04:24.900Z,2.70
2019-03-03T23:07:17.311Z,2.20
2019-03-03T23:10:43.324Z,3.27
2019-03-03T23:13:59.747Z,2.30
2019-03-03T23:17:02.999Z,4.10
2019-03-03T23:20:16.322Z,1.97
2019-03-03T23:23:28.636Z,1.87
2019-03-03T23:25:58.295Z,3.43
2019-03-03T23:28:28.107Z,1.97
2019-03-03T23:31:09.415Z,4.07
2019-03-03T23:33:39.127Z,2.67
2019-03-03T23:36:08.772Z,2.90
2019-03-03T23:38:38.547Z,3.40
2019-03-03T23:41:08.181Z,2.00
2019-03-03T23:43:37.833Z,3.50
2019-03-03T23:46:07.474Z,2.30
2019-03-03T23:48:37.208Z,3.03
2019-03-03T23:51:06.861Z,2.53
2019-03-03T23:53:36.524Z,2.37
2019-03-03T23:56:06.167Z,2.60
2019-03-03T23:58:36.175Z,2.27
